createdAt,value
2022-11-28T00:01:06.350Z,8.95
2022-11-28T00:03:34.932Z,9.07
2022-11-28T00:06:06.060Z,8.35
2022-11-28T00:08:33.942Z,9.25
2022-11-28T00:11:09.803Z,10.30
2022-11-28T00:13:40.145Z,10.23
2022-11-28T00:16:08.639Z,9.90
2022-11-28T00:18:36.779Z,10.23
2022-11-28T00:21:06.404Z,9.63
2022-11-28T00:23:33.532Z,11.23
2022-11-28T00:26:03.254Z,10.23
2022-11-28T00:28:29.919Z,9.40
2022-11-28T00:30:56.521Z,9.05
2022-11-28T00:33:23.659Z,7.80
2022-11-28T00:35:50.307Z,9.95
2022-11-28T00:38:16.936Z,9.30
2022-11-28T00:40:46.590Z,7.25
2022-11-28T00:43:13.358Z,7.53
2022-11-28T00:45:39.959Z,10.68
2022-11-28T00:48:06.678Z,7.68
2022-11-28T00:50:33.256Z,7.45
2022-11-28T00:53:00.244Z,8.60
2022-11-28T00:55:28.803Z,9.43
2022-11-28T00:57:55.439Z,8.77
2022-11-28T01:00:22.604Z,8.10
2022-11-28T01:02:49.983Z,7.80
2022-11-28T01:05:16.790Z,9.82
2022-11-28T01:07:43.458Z,10.90
2022-11-28T01:10:12.561Z,8.18
2022-11-28T01:12:39.192Z,9.25
2022-11-28T01:15:09.586Z,9.05
2022-11-28T01:17:36.595Z,9.63
2022-11-28T01:20:06.490Z,8.55
2022-11-28T01:22:33.092Z,9.55
2022-11-28T01:24:59.937Z,8.18
2022-11-28T01:27:26.673Z,8.13
2022-11-28T01:29:53.397Z,7.18
2022-11-28T01:32:20.027Z,7.43
2022-11-28T01:34:46.606Z,6.72
2022-11-28T01:37:13.176Z,7.18
2022-11-28T01:39:40.545Z,6.28
2022-11-28T01:42:07.128Z,7.25
2022-11-28T01:44:33.640Z,10.02
2022-11-28T01:47:00.270Z,7.53
2022-11-28T01:49:37.573Z,5.72
2022-11-28T01:52:14.753Z,8.43
2022-11-28T01:54:44.304Z,8.57
2022-11-28T01:57:20.396Z,8.43
2022-11-28T01:59:53.940Z,6.47
2022-11-28T02:02:29.035Z,8.40
2022-11-28T02:04:55.731Z,9.38
2022-11-28T02:07:22.456Z,8.30
2022-11-28T02:09:49.137Z,6.97
2022-11-28T02:12:41.985Z,7.63
2022-11-28T02:15:24.231Z,5.72
2022-11-28T02:18:08.687Z,7.43
2022-11-28T02:20:52.142Z,7.18
2022-11-28T02:23:36.809Z,7.53
2022-11-28T02:26:41.640Z,7.30
2022-11-28T02:29:37.529Z,6.40
2022-11-28T02:32:13.836Z,7.97
2022-11-28T02:34:47.031Z,7.82
2022-11-28T02:37:36.916Z,8.07
2022-11-28T02:40:29.349Z,9.45
2022-11-28T02:43:17.888Z,9.65
2022-11-28T02:46:20.598Z,8.13
2022-11-28T02:49:03.263Z,7.57
2022-11-28T02:51:40.878Z,7.80
2022-11-28T02:54:12.017Z,8.15
2022-11-28T02:56:38.633Z,7.68
2022-11-28T02:59:25.287Z,9.30
2022-11-28T03:07:13.016Z,8.43
2022-11-28T03:10:13.187Z,7.72
2022-11-28T03:13:00.667Z,6.82
2022-11-28T03:15:43.261Z,6.68
2022-11-28T03:18:09.801Z,7.85
2022-11-28T03:20:53.218Z,7.50
2022-11-28T03:23:25.138Z,7.10
2022-11-28T03:25:59.305Z,9.18
2022-11-28T03:28:43.376Z,8.80
2022-11-28T03:31:19.519Z,10.35
2022-11-28T03:33:52.349Z,10.55
2022-11-28T03:36:24.152Z,7.80
2022-11-28T03:39:00.087Z,7.20
2022-11-28T03:41:36.316Z,4.90
2022-11-28T03:46:41.802Z,8.25
2022-11-28T03:49:09.650Z,10.65
2022-11-28T03:51:48.181Z,9.43
2022-11-28T03:54:37.481Z,11.80
2022-11-28T03:57:15.636Z,9.57
2022-11-28T03:59:47.532Z,8.63
2022-11-28T04:02:36.287Z,10.27
2022-11-28T04:05:18.057Z,9.93
2022-11-28T04:07:55.761Z,10.43
2022-11-28T04:11:01.016Z,8.45
2022-11-28T04:13:34.846Z,8.00
2022-11-28T04:16:06.434Z,8.98
2022-11-28T04:18:43.517Z,10.18
2022-11-28T04:21:19.049Z,8.98
2022-11-28T04:23:48.112Z,9.70
2022-11-28T04:26:23.250Z,11.82
2022-11-28T04:28:52.381Z,9.65
2022-11-28T04:31:22.818Z,13.05
2022-11-28T04:33:56.345Z,13.05
2022-11-28T04:36:26.028Z,13.57
2022-11-28T04:38:56.605Z,11.13
2022-11-28T04:41:34.435Z,10.75
2022-11-28T04:44:17.824Z,12.02
2022-11-28T04:46:48.529Z,12.90
2022-11-28T04:49:15.390Z,10.80
2022-11-28T04:52:01.477Z,10.50
2022-11-28T04:55:04.916Z,11.77
2022-11-28T04:57:50.680Z,12.93
2022-11-28T05:00:22.339Z,13.93
2022-11-28T05:02:52.533Z,10.85
2022-11-28T05:05:23.299Z,11.35
2022-11-28T05:07:50.002Z,10.30
2022-11-28T05:10:17.852Z,15.13
2022-11-28T05:12:44.449Z,15.18
2022-11-28T05:15:12.321Z,10.27
2022-11-28T05:17:42.436Z,11.52
2022-11-28T05:20:09.707Z,13.55
2022-11-28T05:22:36.308Z,12.73
2022-11-28T05:25:03.108Z,14.50
2022-11-28T05:27:29.791Z,15.13
2022-11-28T05:29:56.397Z,14.23
2022-11-28T05:32:23.505Z,16.92
2022-11-28T05:34:50.086Z,18.45
2022-11-28T05:37:16.628Z,18.30
2022-11-28T05:39:43.298Z,17.98
2022-11-28T05:42:10.108Z,18.27
2022-11-28T05:44:37.566Z,15.10
2022-11-28T05:47:04.311Z,16.27
2022-11-28T05:49:30.931Z,12.73
2022-11-28T05:51:57.529Z,13.02
2022-11-28T05:54:24.209Z,15.57
2022-11-28T05:56:50.827Z,13.98
2022-11-28T05:59:17.403Z,12.88
2022-11-28T06:01:44.195Z,12.70
2022-11-28T06:04:10.823Z,15.25
2022-11-28T06:06:37.471Z,15.27
2022-11-28T06:09:06.572Z,12.20
2022-11-28T06:11:34.461Z,15.43
2022-11-28T06:14:03.096Z,14.23
2022-11-28T06:16:31.826Z,14.20
2022-11-28T06:19:01.587Z,12.73
2022-11-28T06:21:29.738Z,14.95
2022-11-28T06:24:00.664Z,13.27
2022-11-28T06:26:28.760Z,16.83
2022-11-28T06:28:55.813Z,16.42
2022-11-28T06:31:25.562Z,15.77
2022-11-28T06:33:52.177Z,16.65
2022-11-28T06:36:19.484Z,17.27
2022-11-28T06:38:46.664Z,19.17
2022-11-28T06:41:16.260Z,19.50
2022-11-28T06:43:43.134Z,17.02
2022-11-28T06:46:16.453Z,16.65
2022-11-28T06:48:43.802Z,16.75
2022-11-28T06:51:11.356Z,17.10
2022-11-28T06:53:38.716Z,19.55
2022-11-28T06:56:07.978Z,21.60
2022-11-28T06:58:35.350Z,19.13
2022-11-28T07:01:11.776Z,17.90
2022-11-28T07:03:39.454Z,14.45
2022-11-28T07:06:06.996Z,16.05
2022-11-28T07:08:34.678Z,13.27
2022-11-28T07:11:14.561Z,16.17
2022-11-28T07:13:43.563Z,14.32
2022-11-28T07:16:16.784Z,13.50
2022-11-28T07:18:44.057Z,15.60
2022-11-28T07:21:12.430Z,14.50
2022-11-28T07:23:38.992Z,15.60
2022-11-28T07:26:06.093Z,15.35
2022-11-28T07:28:34.896Z,14.73
2022-11-28T07:31:07.668Z,15.60
2022-11-28T07:33:35.358Z,13.35
2022-11-28T07:36:04.126Z,12.48
2022-11-28T07:38:31.194Z,12.80
2022-11-28T07:41:12.272Z,13.75
2022-11-28T07:43:40.023Z,14.57
2022-11-28T07:46:09.166Z,11.20
2022-11-28T07:48:37.169Z,16.20
2022-11-28T07:51:14.057Z,11.88
2022-11-28T07:53:41.047Z,13.65
2022-11-28T07:56:15.231Z,14.15
2022-11-28T07:58:43.871Z,14.18
2022-11-28T08:01:19.036Z,15.57
2022-11-28T08:03:46.662Z,15.20
2022-11-28T08:06:14.577Z,14.18
2022-11-28T08:08:41.466Z,14.05
2022-11-28T08:11:10.088Z,13.40
2022-11-28T08:13:39.963Z,13.57
2022-11-28T08:16:09.078Z,12.73
2022-11-28T08:18:37.043Z,13.68
2022-11-28T08:21:26.197Z,11.82
2022-11-28T08:23:54.634Z,14.20
2022-11-28T08:26:27.497Z,11.77
2022-11-28T08:28:58.918Z,11.32
2022-11-28T08:31:29.285Z,14.80
2022-11-28T08:33:58.253Z,10.82
2022-11-28T08:36:28.296Z,10.07
2022-11-28T08:41:43.612Z,11.98
2022-11-28T08:44:10.190Z,11.85
2022-11-28T08:46:37.047Z,12.95
2022-11-28T08:49:04.803Z,9.80
2022-11-28T08:51:31.920Z,12.25
2022-11-28T08:54:01.189Z,13.68
2022-11-28T08:56:28.832Z,13.90
2022-11-28T08:58:55.852Z,11.10
2022-11-28T09:01:24.541Z,12.82
2022-11-28T09:03:52.579Z,10.45
2022-11-28T09:06:20.953Z,11.88
2022-11-28T09:08:48.122Z,11.13
2022-11-28T09:11:17.644Z,11.15
2022-11-28T09:13:51.158Z,10.38
2022-11-28T09:16:20.700Z,13.57
2022-11-28T09:18:47.357Z,12.38
2022-11-28T09:21:15.375Z,13.20
2022-11-28T09:23:44.630Z,11.18
2022-11-28T09:26:16.042Z,14.68
2022-11-28T09:28:43.260Z,11.60
2022-11-28T09:31:12.133Z,12.55
2022-11-28T09:33:38.870Z,12.18
2022-11-28T09:36:15.004Z,12.65
2022-11-28T09:38:42.229Z,13.90
2022-11-28T09:41:40.657Z,13.05
2022-11-28T09:44:36.336Z,13.68
2022-11-28T09:47:09.066Z,12.27
2022-11-28T09:53:24.911Z,13.48
2022-11-28T09:55:57.665Z,13.82
2022-11-28T09:58:45.941Z,11.85
2022-11-28T10:01:21.379Z,13.75
2022-11-28T10:04:09.143Z,17.73
2022-11-28T10:07:02.423Z,12.50
2022-11-28T10:09:34.763Z,13.75
2022-11-28T10:12:29.137Z,15.23
2022-11-28T10:15:18.189Z,14.90
2022-11-28T10:18:06.107Z,14.27
2022-11-28T10:20:46.097Z,14.32
2022-11-28T10:23:36.850Z,11.07
2022-11-28T10:26:09.756Z,14.80
2022-11-28T10:28:43.941Z,15.57
2022-11-28T10:31:23.168Z,15.30
2022-11-28T10:33:58.918Z,29.15
2022-11-28T10:36:34.980Z,16.67
2022-11-28T10:39:11.369Z,16.95
2022-11-28T10:42:07.992Z,14.30
2022-11-28T10:44:44.729Z,11.85
2022-11-28T10:47:28.897Z,14.05
2022-11-28T10:50:06.721Z,12.90
2022-11-28T10:52:46.847Z,15.15
2022-11-28T10:55:53.451Z,12.73
2022-11-28T10:58:23.000Z,11.82
2022-11-28T11:00:53.575Z,11.77
2022-11-28T11:03:28.270Z,12.23
2022-11-28T11:05:54.863Z,13.15
2022-11-28T11:08:31.032Z,15.07
2022-11-28T11:11:28.734Z,15.15
2022-11-28T11:13:58.918Z,12.55
2022-11-28T11:16:59.009Z,16.00
2022-11-28T11:19:32.875Z,13.93
2022-11-28T11:22:16.054Z,15.40
2022-11-28T11:24:42.709Z,19.50
2022-11-28T11:27:21.942Z,16.30
2022-11-28T11:30:00.391Z,15.80
2022-11-28T11:32:30.018Z,15.90
2022-11-28T11:35:02.697Z,14.02
2022-11-28T11:37:33.662Z,11.60
2022-11-28T11:40:02.437Z,11.35
2022-11-28T11:42:32.099Z,11.05
2022-11-28T11:45:27.300Z,11.23
2022-11-28T11:47:53.971Z,12.23
2022-11-28T11:50:55.569Z,11.15
2022-11-28T11:53:22.966Z,13.27
2022-11-28T11:55:52.918Z,12.10
2022-11-28T11:58:25.465Z,14.05
2022-11-28T12:00:56.211Z,11.07
2022-11-28T12:03:53.760Z,11.80
2022-11-28T12:06:25.569Z,11.88
2022-11-28T12:09:07.457Z,10.80
2022-11-28T12:11:50.855Z,10.07
2022-11-28T12:14:37.309Z,10.43
2022-11-28T12:17:51.416Z,10.43
2022-11-28T12:20:50.908Z,9.90
2022-11-28T12:23:43.881Z,11.15
2022-11-28T12:26:35.566Z,9.75
2022-11-28T12:29:09.426Z,13.45
2022-11-28T12:31:43.560Z,12.27
2022-11-28T12:34:34.394Z,12.00
2022-11-28T12:37:02.202Z,11.15
2022-11-28T12:39:49.828Z,13.90
2022-11-28T12:42:28.190Z,11.02
2022-11-28T12:45:13.439Z,14.32
2022-11-28T12:47:50.581Z,14.02
2022-11-28T12:50:25.068Z,11.63
2022-11-28T12:52:51.605Z,10.45
2022-11-28T12:55:51.887Z,11.45
2022-11-28T12:58:25.211Z,12.32
2022-11-28T13:01:08.923Z,10.93
2022-11-28T13:03:53.868Z,10.98
2022-11-28T13:06:32.251Z,11.18
2022-11-28T13:09:11.218Z,9.63
2022-11-28T13:12:15.424Z,10.18
2022-11-28T13:14:57.428Z,11.93
2022-11-28T13:17:43.933Z,11.50
2022-11-28T13:20:36.006Z,11.35
2022-11-28T13:23:28.602Z,14.55
2022-11-28T13:26:09.283Z,13.57
2022-11-28T13:28:47.898Z,12.18
2022-11-28T13:31:24.129Z,12.88
2022-11-28T13:33:56.010Z,12.38
2022-11-28T13:39:47.107Z,12.05
2022-11-28T13:43:02.436Z,11.45
2022-11-28T13:45:32.206Z,13.85
2022-11-28T13:48:01.223Z,12.00
2022-11-28T13:50:39.283Z,13.85
2022-11-28T13:53:10.479Z,11.60
2022-11-28T13:55:46.983Z,15.60
2022-11-28T13:58:19.474Z,20.02
2022-11-28T14:01:17.859Z,13.43
2022-11-28T14:03:49.383Z,11.15
2022-11-28T14:06:28.371Z,13.07
2022-11-28T14:09:17.132Z,12.20
2022-11-28T14:11:52.506Z,11.85
2022-11-28T14:14:31.491Z,10.77
2022-11-28T14:17:23.688Z,10.82
2022-11-28T14:20:14.252Z,9.77
2022-11-28T14:23:11.588Z,12.20
2022-11-28T14:25:45.748Z,12.25
2022-11-28T14:28:37.750Z,12.00
2022-11-28T14:31:30.403Z,10.75
2022-11-28T14:33:59.838Z,11.63
2022-11-28T14:36:41.872Z,10.77
2022-11-28T14:39:14.611Z,9.88
2022-11-28T14:42:03.401Z,11.57
2022-11-28T14:44:50.522Z,10.43
2022-11-28T14:47:35.647Z,10.45
2022-11-28T14:50:05.233Z,11.48
2022-11-28T14:52:40.708Z,10.52
2022-11-28T14:55:10.968Z,10.55
2022-11-28T14:57:51.350Z,11.55
2022-11-28T15:00:28.602Z,11.43
2022-11-28T15:03:04.374Z,10.35
2022-11-28T15:05:44.698Z,12.50
2022-11-28T15:08:32.642Z,10.55
2022-11-28T15:10:59.317Z,11.98
2022-11-28T15:13:28.557Z,11.82
2022-11-28T15:16:06.520Z,12.48
2022-11-28T15:18:34.158Z,13.77
2022-11-28T15:21:05.587Z,12.02
2022-11-28T15:23:39.174Z,12.35
2022-11-28T15:26:06.902Z,12.27
2022-11-28T15:28:35.612Z,12.93
2022-11-28T15:31:05.773Z,12.18
2022-11-28T15:33:33.724Z,13.27
2022-11-28T15:36:24.484Z,11.63
2022-11-28T15:38:57.493Z,9.93
2022-11-28T15:41:27.444Z,12.57
2022-11-28T15:43:56.405Z,12.55
2022-11-28T15:46:45.819Z,11.48
2022-11-28T15:49:26.532Z,12.75
2022-11-28T15:52:06.760Z,12.55
2022-11-28T15:54:48.417Z,12.32
2022-11-28T15:57:21.328Z,11.65
2022-11-28T15:59:47.978Z,11.10
2022-11-28T16:02:34.007Z,11.48
2022-11-28T16:05:21.341Z,12.10
2022-11-28T16:07:50.936Z,13.32
2022-11-28T16:10:35.049Z,13.13
2022-11-28T16:13:09.611Z,12.52
2022-11-28T16:15:37.082Z,12.13
2022-11-28T16:18:03.986Z,12.40
2022-11-28T16:20:36.741Z,10.82
2022-11-28T16:23:23.551Z,12.40
2022-11-28T16:26:01.506Z,12.77
2022-11-28T16:28:59.944Z,12.05
2022-11-28T16:31:28.425Z,10.40
2022-11-28T16:33:55.509Z,11.88
2022-11-28T16:36:24.620Z,12.32
2022-11-28T16:39:04.853Z,13.07
2022-11-28T16:41:32.230Z,12.98
2022-11-28T16:44:18.800Z,14.27
2022-11-28T16:46:57.659Z,16.50
2022-11-28T16:49:30.387Z,14.20
2022-11-28T16:52:28.973Z,15.50
2022-11-28T16:54:56.544Z,15.02
2022-11-28T16:57:26.513Z,12.90
2022-11-28T16:59:56.744Z,13.13
2022-11-28T17:02:28.349Z,14.50
2022-11-28T17:04:54.914Z,14.77
2022-11-28T17:07:23.568Z,14.13
2022-11-28T17:09:51.549Z,19.17
2022-11-28T17:12:29.882Z,16.27
2022-11-28T17:14:59.149Z,14.88
2022-11-28T17:17:26.067Z,15.70
2022-11-28T17:19:52.881Z,14.77
2022-11-28T17:22:25.662Z,18.00
2022-11-28T17:24:59.494Z,15.13
2022-11-28T17:27:26.150Z,15.27
2022-11-28T17:29:52.712Z,14.45
2022-11-28T17:32:19.324Z,16.00
2022-11-28T17:34:46.243Z,16.08
2022-11-28T17:37:13.393Z,18.23
2022-11-28T17:39:40.036Z,18.38
2022-11-28T17:42:06.685Z,15.85
2022-11-28T17:44:37.683Z,16.77
2022-11-28T17:47:04.393Z,16.55
2022-11-28T17:49:31.228Z,18.13
2022-11-28T17:51:57.938Z,16.48
2022-11-28T17:54:28.662Z,19.52
2022-11-28T17:56:55.725Z,21.48
2022-11-28T17:59:25.668Z,19.20
2022-11-28T18:01:52.345Z,18.75
2022-11-28T18:04:19.504Z,17.85
2022-11-28T18:06:47.437Z,21.08
2022-11-28T18:09:14.851Z,16.45
2022-11-28T18:11:42.609Z,18.13
2022-11-28T18:14:10.010Z,18.33
2022-11-28T18:16:39.689Z,18.40
2022-11-28T18:19:06.392Z,18.50
2022-11-28T18:21:33.917Z,19.50
2022-11-28T18:24:00.517Z,17.02
2022-11-28T18:26:27.318Z,19.50
2022-11-28T18:28:55.733Z,23.73
2022-11-28T18:31:25.647Z,25.35
2022-11-28T18:33:57.368Z,21.98
2022-11-28T18:36:27.549Z,20.10
2022-11-28T18:38:55.895Z,20.65
2022-11-28T18:41:22.506Z,22.52
2022-11-28T18:43:49.166Z,21.92
2022-11-28T18:46:19.161Z,24.88
2022-11-28T18:48:47.610Z,19.65
2022-11-28T18:51:22.887Z,21.85
2022-11-28T18:53:50.853Z,22.83
2022-11-28T18:56:18.058Z,19.95
2022-11-28T18:58:47.761Z,23.30
2022-11-28T19:01:15.757Z,23.27
2022-11-28T19:03:43.377Z,27.27
2022-11-28T19:06:12.798Z,24.75
2022-11-28T19:08:40.261Z,25.40
2022-11-28T19:11:11.461Z,27.48
2022-11-28T19:13:42.223Z,27.00
2022-11-28T19:16:11.493Z,30.20
2022-11-28T19:18:39.591Z,29.92
2022-11-28T19:21:08.241Z,29.08
2022-11-28T19:23:35.468Z,25.35
2022-11-28T19:26:07.560Z,26.85
2022-11-28T19:28:38.720Z,25.05
2022-11-28T19:31:15.225Z,27.80
2022-11-28T19:33:44.201Z,26.60
2022-11-28T19:36:12.995Z,25.70
2022-11-28T19:38:40.168Z,25.52
2022-11-28T19:41:14.690Z,27.05
2022-11-28T19:43:42.166Z,29.17
2022-11-28T19:46:10.423Z,35.35
2022-11-28T19:48:39.056Z,33.63
2022-11-28T19:51:06.674Z,29.30
2022-11-28T19:53:35.297Z,30.70
2022-11-28T19:56:08.011Z,37.13
2022-11-28T19:58:35.582Z,38.78
2022-11-28T20:01:16.655Z,40.92
2022-11-28T20:03:44.151Z,42.53
2022-11-28T20:06:31.430Z,44.28
2022-11-28T20:09:01.298Z,48.53
2022-11-28T20:11:34.901Z,57.67
2022-11-28T20:14:07.982Z,60.90
2022-11-28T20:16:35.915Z,63.72
2022-11-28T20:19:03.156Z,59.80
2022-11-28T20:21:30.606Z,87.18
2022-11-28T20:24:02.720Z,87.35
2022-11-28T20:26:30.112Z,109.53
2022-11-28T20:28:57.055Z,89.22
2022-11-28T20:31:27.934Z,115.50
2022-11-28T20:33:54.932Z,121.28
2022-11-28T20:36:24.649Z,91.25
2022-11-28T20:38:52.668Z,67.40
2022-11-28T20:41:20.743Z,59.95
2022-11-28T20:43:47.381Z,44.92
2022-11-28T20:46:19.185Z,41.03
2022-11-28T20:48:46.214Z,37.58
2022-11-28T20:51:25.026Z,38.47
2022-11-28T20:53:52.657Z,36.50
2022-11-28T20:56:24.995Z,34.80
2022-11-28T20:58:53.289Z,44.63
2022-11-28T21:01:22.506Z,48.50
2022-11-28T21:03:50.251Z,46.75
2022-11-28T21:06:17.226Z,46.67
2022-11-28T21:08:43.986Z,41.22
2022-11-28T21:11:30.981Z,43.65
2022-11-28T21:14:05.725Z,41.95
2022-11-28T21:16:34.044Z,42.63
2022-11-28T21:19:07.037Z,37.17
2022-11-28T21:21:34.441Z,39.20
2022-11-28T21:24:04.042Z,42.83
2022-11-28T21:26:33.054Z,45.40
2022-11-28T21:29:06.583Z,42.53
2022-11-28T21:31:37.144Z,42.50
2022-11-28T21:34:03.922Z,41.72
2022-11-28T21:36:31.352Z,44.28
2022-11-28T21:39:00.603Z,47.13
2022-11-28T21:41:32.006Z,41.20
2022-11-28T21:44:00.167Z,40.97
2022-11-28T21:46:27.674Z,44.10
2022-11-28T21:48:54.507Z,42.55
2022-11-28T21:51:23.717Z,45.08
2022-11-28T21:53:51.161Z,45.83
2022-11-28T21:56:18.317Z,48.38
2022-11-28T21:58:45.015Z,46.35
2022-11-28T22:01:14.278Z,55.15
2022-11-28T22:03:41.891Z,53.40
2022-11-28T22:06:14.834Z,51.90
2022-11-28T22:08:41.394Z,49.47
2022-11-28T22:11:13.287Z,46.05
2022-11-28T22:13:46.060Z,49.17
2022-11-28T22:16:20.271Z,46.67
2022-11-28T22:18:48.332Z,48.60
2022-11-28T22:24:06.760Z,50.20
2022-11-28T22:26:33.820Z,50.33
2022-11-28T22:29:01.109Z,62.92
2022-11-28T22:31:28.181Z,69.10
2022-11-28T22:33:54.812Z,75.65
2022-11-28T22:36:22.514Z,71.43
2022-11-28T22:38:53.657Z,73.55
2022-11-28T22:41:27.822Z,60.92
2022-11-28T22:43:57.198Z,52.58
2022-11-28T22:46:23.893Z,44.15
2022-11-28T22:48:51.956Z,42.17
2022-11-28T22:51:23.567Z,42.08
2022-11-28T22:53:55.190Z,40.65
2022-11-28T22:56:22.254Z,41.03
2022-11-28T22:58:48.981Z,42.72
2022-11-28T23:01:18.731Z,40.80
2022-11-28T23:03:46.395Z,42.55
2022-11-28T23:06:21.149Z,44.60
2022-11-28T23:08:48.425Z,31.30
2022-11-28T23:11:20.309Z,38.83
2022-11-28T23:13:49.876Z,33.55
2022-11-28T23:16:26.243Z,31.90
2022-11-28T23:18:55.438Z,27.80
2022-11-28T23:21:23.976Z,28.05
2022-11-28T23:23:50.865Z,24.60
2022-11-28T23:26:21.749Z,21.77
2022-11-28T23:28:49.275Z,23.60
2022-11-28T23:31:19.210Z,21.92
2022-11-28T23:33:46.539Z,26.83
2022-11-28T23:36:16.136Z,27.02
2022-11-28T23:38:43.871Z,25.83
2022-11-28T23:41:12.198Z,26.67
2022-11-28T23:43:38.969Z,29.65
2022-11-28T23:46:06.992Z,29.38
2022-11-28T23:48:34.026Z,31.90
2022-11-28T23:51:00.708Z,32.65
2022-11-28T23:53:27.457Z,42.53
2022-11-28T23:55:54.977Z,43.58
2022-11-28T23:58:21.570Z,47.00
